sensor_id;sensor_type;location;lat;lon;timestamp;pressure;altitude;pressure_sealevel;temperature;humidity
69198;BME280;56311;50.298;8.514;2024-03-23T00:54:00;96860.0;;;7.5;74.4
69198;BME280;56311;50.298;8.514;2024-03-23T00:56:00;96850.0;;;7.5;74.2
69198;BME280;56311;50.298;8.514;2024-03-23T00:58:00;96850.0;;;7.5;73.9
69198;BME280;56311;50.298;8.514;2024-03-23T01:00:00;96850.0;;;7.5;73.9
69198;BME280;56311;50.298;8.514;2024-03-23T01:02:00;96850.0;;;7.6;74.0
69198;BME280;56311;50.298;8.514;2024-03-23T01:04:00;96850.0;;;7.6;74.0
69198;BME280;56311;50.298;8.514;2024-03-23T01:06:00;96850.0;;;7.6;73.9
69198;BME280;56311;50.298;8.514;2024-03-23T01:08:00;96840.0;;;7.6;74.3
69198;BME280;56311;50.298;8.514;2024-03-23T01:10:00;96830.0;;;7.7;74.3
69198;BME280;56311;50.298;8.514;2024-03-23T01:12:00;96830.0;;;7.7;74.4
69198;BME280;56311;50.298;8.514;2024-03-23T01:14:00;96830.0;;;7.7;76.0
69198;BME280;56311;50.298;8.514;2024-03-23T01:16:00;96830.0;;;7.4;78.8
69198;BME280;56311;50.298;8.514;2024-03-23T01:18:00;96840.0;;;7.2;80.2
69198;BME280;56311;50.298;8.514;2024-03-23T01:20:00;96830.0;;;7.1;79.9
69198;BME280;56311;50.298;8.514;2024-03-23T01:22:00;96830.0;;;7.0;78.4
69198;BME280;56311;50.298;8.514;2024-03-23T01:24:00;96820.0;;;7.1;77.5
69198;BME280;56311;50.298;8.514;2024-03-23T01:26:00;96820.0;;;7.0;77.2
69198;BME280;56311;50.298;8.514;2024-03-23T01:28:00;96820.0;;;7.0;76.8
69198;BME280;56311;50.298;8.514;2024-03-23T01:30:00;96820.0;;;7.0;76.4
69198;BME280;56311;50.298;8.514;2024-03-23T01:32:00;96810.0;;;7.0;76.4
69198;BME280;56311;50.298;8.514;2024-03-23T01:34:00;96810.0;;;7.0;76.3
69198;BME280;56311;50.298;8.514;2024-03-23T01:36:00;96800.0;;;7.0;76.4
69198;BME280;56311;50.298;8.514;2024-03-23T01:38:00;96800.0;;;7.0;76.5
69198;BME280;56311;50.298;8.514;2024-03-23T01:40:00;96810.0;;;7.0;77.2
69198;BME280;56311;50.298;8.514;2024-03-23T01:42:00;96800.0;;;6.9;77.2
69198;BME280;56311;50.298;8.514;2024-03-23T01:44:05;96810.0;;;6.9;77.2
69198;BME280;56311;50.298;8.514;2024-03-23T01:46:00;96810.0;;;6.9;77.0
69198;BME280;56311;50.298;8.514;2024-03-23T01:48:01;96810.0;;;7.0;77.1
69198;BME280;56311;50.298;8.514;2024-03-23T01:50:00;96800.0;;;7.0;77.0
69198;BME280;56311;50.298;8.514;2024-03-23T01:52:00;96780.0;;;7.1;78.2
69198;BME280;56311;50.298;8.514;2024-03-23T01:54:01;96770.0;;;7.1;78.0
69198;BME280;56311;50.298;8.514;2024-03-23T01:56:02;96780.0;;;7.1;77.4
69198;BME280;56311;50.298;8.514;2024-03-23T01:58:00;96780.0;;;7.1;76.9
69198;BME280;56311;50.298;8.514;2024-03-23T02:00:00;96780.0;;;7.1;76.7
69198;BME280;56311;50.298;8.514;2024-03-23T02:02:00;96770.0;;;7.2;76.6
69198;BME280;56311;50.298;8.514;2024-03-23T02:04:00;96770.0;;;7.2;76.8
69198;BME280;56311;50.298;8.514;2024-03-23T02:06:00;96760.0;;;7.2;76.6
69198;BME280;56311;50.298;8.514;2024-03-23T02:08:00;96760.0;;;7.2;76.4
69198;BME280;56311;50.298;8.514;2024-03-23T02:10:01;96760.0;;;7.3;76.1
69198;BME280;56311;50.298;8.514;2024-03-23T02:12:01;96760.0;;;7.3;76.0
69198;BME280;56311;50.298;8.514;2024-03-23T02:14:00;96760.0;;;7.3;75.7
69198;BME280;56311;50.298;8.514;2024-03-23T02:16:00;96760.0;;;7.4;75.7
69198;BME280;56311;50.298;8.514;2024-03-23T02:18:00;96760.0;;;7.4;75.5
69198;BME280;56311;50.298;8.514;2024-03-23T02:20:00;96750.0;;;7.4;75.5
69198;BME280;56311;50.298;8.514;2024-03-23T02:22:00;96750.0;;;7.4;75.5
69198;BME280;56311;50.298;8.514;2024-03-23T02:24:00;96750.0;;;7.4;75.3
69198;BME280;56311;50.298;8.514;2024-03-23T02:26:00;96740.0;;;7.5;75.5
69198;BME280;56311;50.298;8.514;2024-03-23T02:28:00;96750.0;;;7.5;75.4
69198;BME280;56311;50.298;8.514;2024-03-23T02:30:00;96740.0;;;7.5;75.2
69198;BME280;56311;50.298;8.514;2024-03-23T02:32:00;96740.0;;;7.5;76.0
69198;BME280;56311;50.298;8.514;2024-03-23T02:34:00;96730.0;;;7.5;76.9
69198;BME280;56311;50.298;8.514;2024-03-23T02:36:00;96730.0;;;7.5;77.1
69198;BME280;56311;50.298;8.514;2024-03-23T02:38:00;96720.0;;;7.5;76.7
69198;BME280;56311;50.298;8.514;2024-03-23T02:40:00;96720.0;;;7.5;76.4
69198;BME280;56311;50.298;8.514;2024-03-23T02:42:00;96720.0;;;7.5;76.4
69198;BME280;56311;50.298;8.514;2024-03-23T02:44:00;96710.0;;;7.5;76.5
69198;BME280;56311;50.298;8.514;2024-03-23T02:46:00;96710.0;;;7.5;76.2
69198;BME280;56311;50.298;8.514;2024-03-23T02:48:00;96700.0;;;7.6;76.0
69198;BME280;56311;50.298;8.514;2024-03-23T02:50:00;96700.0;;;7.6;76.1
69198;BME280;56311;50.298;8.514;2024-03-23T02:52:00;96700.0;;;7.6;75.9
69198;BME280;56311;50.298;8.514;2024-03-23T02:54:00;96710.0;;;7.6;76.2
69198;BME280;56311;50.298;8.514;2024-03-23T02:56:00;96700.0;;;7.7;76.5
69198;BME280;56311;50.298;8.514;2024-03-23T02:58:00;96690.0;;;7.7;76.8
69198;BME280;56311;50.298;8.514;2024-03-23T03:00:00;96680.0;;;7.7;77.1
69198;BME280;56311;50.298;8.514;2024-03-23T03:02:00;96680.0;;;7.7;76.9
69198;BME280;56311;50.298;8.514;2024-03-23T03:04:00;96680.0;;;7.7;77.1
69198;BME280;56311;50.298;8.514;2024-03-23T03:06:00;96680.0;;;7.7;77.0
69198;BME280;56311;50.298;8.514;2024-03-23T03:08:00;96680.0;;;7.8;77.4
69198;BME280;56311;50.298;8.514;2024-03-23T03:10:00;96670.0;;;7.7;78.1
69198;BME280;56311;50.298;8.514;2024-03-23T03:12:00;96670.0;;;7.8;77.4
69198;BME280;56311;50.298;8.514;2024-03-23T03:14:00;96670.0;;;7.7;77.6
69198;BME280;56311;50.298;8.514;2024-03-23T03:16:00;96680.0;;;7.8;77.5
69198;BME280;56311;50.298;8.514;2024-03-23T03:18:00;96660.0;;;7.8;77.4
69198;BME280;56311;50.298;8.514;2024-03-23T03:20:00;96660.0;;;7.8;77.5
69198;BME280;56311;50.298;8.514;2024-03-23T03:22:00;96660.0;;;7.8;77.5
69198;BME280;56311;50.298;8.514;2024-03-23T03:24:00;96660.0;;;7.9;77.6
69198;BME280;56311;50.298;8.514;2024-03-23T03:26:00;96660.0;;;7.9;78.8
69198;BME280;56311;50.298;8.514;2024-03-23T03:28:00;96650.0;;;7.9;79.2
69198;BME280;56311;50.298;8.514;2024-03-23T03:30:00;96640.0;;;7.9;79.1
69198;BME280;56311;50.298;8.514;2024-03-23T03:32:00;96630.0;;;7.9;78.9
69198;BME280;56311;50.298;8.514;2024-03-23T03:34:00;96630.0;;;7.9;79.0
69198;BME280;56311;50.298;8.514;2024-03-23T03:36:00;96630.0;;;7.9;79.1
69198;BME280;56311;50.298;8.514;2024-03-23T03:38:00;96630.0;;;7.9;79.0
69198;BME280;56311;50.298;8.514;2024-03-23T03:40:00;96630.0;;;7.9;79.2
69198;BME280;56311;50.298;8.514;2024-03-23T03:42:00;96640.0;;;7.9;81.0
69198;BME280;56311;50.298;8.514;2024-03-23T03:44:00;96650.0;;;7.8;81.4
69198;BME280;56311;50.298;8.514;2024-03-23T03:46:00;96660.0;;;7.9;83.4
69198;BME280;56311;50.298;8.514;2024-03-23T03:48:00;96680.0;;;7.9;84.5
69198;BME280;56311;50.298;8.514;2024-03-23T03:50:00;96690.0;;;8.0;86.8
69198;BME280;56311;50.298;8.514;2024-03-23T03:52:00;96690.0;;;7.8;87.7
69198;BME280;56311;50.298;8.514;2024-03-23T03:54:00;96680.0;;;7.7;88.0
69198;BME280;56311;50.298;8.514;2024-03-23T03:56:01;96670.0;;;7.7;87.5
69198;BME280;56311;50.298;8.514;2024-03-23T03:58:00;96680.0;;;7.6;89.0
69198;BME280;56311;50.298;8.514;2024-03-23T04:00:00;96680.0;;;7.4;89.1
69198;BME280;56311;50.298;8.514;2024-03-23T04:02:00;96680.0;;;7.4;89.2
69198;BME280;56311;50.298;8.514;2024-03-23T04:04:00;96700.0;;;7.3;89.7
69198;BME280;56311;50.298;8.514;2024-03-23T04:06:00;96700.0;;;7.2;89.1
69198;BME280;56311;50.298;8.514;2024-03-23T04:08:00;96710.0;;;7.2;89.0
69198;BME280;56311;50.298;8.514;2024-03-23T04:10:00;96720.0;;;7.2;89.1
69198;BME280;56311;50.298;8.514;2024-03-23T04:12:00;96720.0;;;7.1;88.2
69198;BME280;56311;50.298;8.514;2024-03-23T04:14:00;96720.0;;;7.0;87.9
69198;BME280;56311;50.298;8.514;2024-03-23T04:16:00;96720.0;;;7.0;86.8
69198;BME280;56311;50.298;8.514;2024-03-23T04:18:00;96740.0;;;7.0;87.5
69198;BME280;56311;50.298;8.514;2024-03-23T04:20:00;96740.0;;;6.9;86.1
69198;BME280;56311;50.298;8.514;2024-03-23T04:22:00;96740.0;;;6.8;86.2
69198;BME280;56311;50.298;8.514;2024-03-23T04:24:00;96740.0;;;6.7;85.8
69198;BME280;56311;50.298;8.514;2024-03-23T04:26:03;96740.0;;;6.6;85.1
69198;BME280;56311;50.298;8.514;2024-03-23T04:28:00;96730.0;;;6.6;84.6
69198;BME280;56311;50.298;8.514;2024-03-23T04:30:01;96730.0;;;6.6;84.2
69198;BME280;56311;50.298;8.514;2024-03-23T04:32:00;96740.0;;;6.6;83.5
69198;BME280;56311;50.298;8.514;2024-03-23T04:34:00;96750.0;;;6.5;83.0
69198;BME280;56311;50.298;8.514;2024-03-23T04:36:00;96730.0;;;6.5;83.1
69198;BME280;56311;50.298;8.514;2024-03-23T04:38:00;96740.0;;;6.4;82.4
69198;BME280;56311;50.298;8.514;2024-03-23T04:40:01;96740.0;;;6.3;82.7
69198;BME280;56311;50.298;8.514;2024-03-23T04:42:00;96740.0;;;6.3;82.7
69198;BME280;56311;50.298;8.514;2024-03-23T04:44:00;96730.0;;;6.2;83.5
69198;BME280;56311;50.298;8.514;2024-03-23T04:46:00;96720.0;;;6.1;83.2
69198;BME280;56311;50.298;8.514;2024-03-23T04:48:00;96730.0;;;6.1;83.4
69198;BME280;56311;50.298;8.514;2024-03-23T04:50:00;96730.0;;;6.0;84.0
69198;BME280;56311;50.298;8.514;2024-03-23T04:52:00;96730.0;;;6.0;85.2
69198;BME280;56311;50.298;8.514;2024-03-23T04:54:00;96730.0;;;5.9;84.3
69198;BME280;56311;50.298;8.514;2024-03-23T04:56:01;96730.0;;;6.0;85.1
69198;BME280;56311;50.298;8.514;2024-03-23T04:58:00;96730.0;;;5.9;85.3
69198;BME280;56311;50.298;8.514;2024-03-23T05:00:00;96750.0;;;5.9;84.9
69198;BME280;56311;50.298;8.514;2024-03-23T05:02:00;96750.0;;;5.9;85.0
69198;BME280;56311;50.298;8.514;2024-03-23T05:04:00;96750.0;;;5.9;84.3
69198;BME280;56311;50.298;8.514;2024-03-23T05:06:00;96740.0;;;5.9;84.6
69198;BME280;56311;50.298;8.514;2024-03-23T05:08:00;96740.0;;;5.8;85.1
69198;BME280;56311;50.298;8.514;2024-03-23T05:10:00;96750.0;;;5.9;86.0
69198;BME280;56311;50.298;8.514;2024-03-23T05:12:00;96750.0;;;5.8;85.6
69198;BME280;56311;50.298;8.514;2024-03-23T05:14:00;96750.0;;;5.8;86.4
69198;BME280;56311;50.298;8.514;2024-03-23T05:16:00;96760.0;;;5.8;86.2
69198;BME280;56311;50.298;8.514;2024-03-23T05:18:00;96770.0;;;5.8;86.1
69198;BME280;56311;50.298;8.514;2024-03-23T05:20:00;96770.0;;;5.8;86.6
69198;BME280;56311;50.298;8.514;2024-03-23T05:22:00;96770.0;;;5.8;86.0
69198;BME280;56311;50.298;8.514;2024-03-23T05:24:00;96770.0;;;5.8;86.1
69198;BME280;56311;50.298;8.514;2024-03-23T05:26:00;96770.0;;;5.8;86.4
69198;BME280;56311;50.298;8.514;2024-03-23T05:28:00;96770.0;;;5.8;85.8
69198;BME280;56311;50.298;8.514;2024-03-23T05:30:00;96780.0;;;5.8;86.5
69198;BME280;56311;50.298;8.514;2024-03-23T05:32:00;96780.0;;;5.7;87.8
69198;BME280;56311;50.298;8.514;2024-03-23T05:34:00;96780.0;;;5.7;87.4
69198;BME280;56311;50.298;8.514;2024-03-23T05:36:01;96780.0;;;5.7;86.5
69198;BME280;56311;50.298;8.514;2024-03-23T05:38:00;96780.0;;;5.7;86.5
69198;BME280;56311;50.298;8.514;2024-03-23T05:40:00;96810.0;;;5.6;85.7
69198;BME280;56311;50.298;8.514;2024-03-23T05:42:00;96820.0;;;5.6;85.6
69198;BME280;56311;50.298;8.514;2024-03-23T05:44:00;96830.0;;;5.6;84.6
69198;BME280;56311;50.298;8.514;2024-03-23T05:46:00;96830.0;;;5.6;84.7
69198;BME280;56311;50.298;8.514;2024-03-23T05:48:00;96820.0;;;5.5;84.7
69198;BME280;56311;50.298;8.514;2024-03-23T05:50:01;96820.0;;;5.5;85.1
69198;BME280;56311;50.298;8.514;2024-03-23T05:52:00;96820.0;;;5.4;85.5
69198;BME280;56311;50.298;8.514;2024-03-23T05:54:00;96820.0;;;5.3;84.6
69198;BME280;56311;50.298;8.514;2024-03-23T05:56:01;96820.0;;;5.3;84.1
69198;BME280;56311;50.298;8.514;2024-03-23T05:58:00;96840.0;;;5.3;83.3
69198;BME280;56311;50.298;8.514;2024-03-23T06:00:00;96850.0;;;5.2;83.6
69198;BME280;56311;50.298;8.514;2024-03-23T06:02:00;96860.0;;;5.2;83.4
69198;BME280;56311;50.298;8.514;2024-03-23T06:04:00;96870.0;;;5.1;83.1
69198;BME280;56311;50.298;8.514;2024-03-23T06:06:00;96880.0;;;5.1;83.6
69198;BME280;56311;50.298;8.514;2024-03-23T06:08:01;96880.0;;;5.0;83.1
69198;BME280;56311;50.298;8.514;2024-03-23T06:10:00;96870.0;;;4.9;84.0
69198;BME280;56311;50.298;8.514;2024-03-23T06:12:00;96860.0;;;4.8;83.9
69198;BME280;56311;50.298;8.514;2024-03-23T06:14:00;96860.0;;;4.8;82.7
69198;BME280;56311;50.298;8.514;2024-03-23T06:16:00;96850.0;;;4.8;82.9
69198;BME280;56311;50.298;8.514;2024-03-23T06:18:00;96840.0;;;4.7;83.3
69198;BME280;56311;50.298;8.514;2024-03-23T06:20:00;96840.0;;;4.7;82.8
69198;BME280;56311;50.298;8.514;2024-03-23T06:22:00;96850.0;;;4.7;82.1
69198;BME280;56311;50.298;8.514;2024-03-23T06:24:00;96840.0;;;4.8;82.3
69198;BME280;56311;50.298;8.514;2024-03-23T06:26:00;96820.0;;;4.7;83.2
69198;BME280;56311;50.298;8.514;2024-03-23T06:28:00;96840.0;;;4.7;82.3
69198;BME280;56311;50.298;8.514;2024-03-23T06:30:00;96870.0;;;4.6;81.9
69198;BME280;56311;50.298;8.514;2024-03-23T06:32:00;96880.0;;;4.7;83.5
69198;BME280;56311;50.298;8.514;2024-03-23T06:34:00;96890.0;;;4.7;83.0
69198;BME280;56311;50.298;8.514;2024-03-23T06:36:00;96900.0;;;4.7;82.6
69198;BME280;56311;50.298;8.514;2024-03-23T06:38:00;96900.0;;;4.7;83.1
69198;BME280;56311;50.298;8.514;2024-03-23T06:40:01;96910.0;;;4.6;83.1
69198;BME280;56311;50.298;8.514;2024-03-23T06:42:00;96910.0;;;4.7;83.7
69198;BME280;56311;50.298;8.514;2024-03-23T06:44:00;96910.0;;;4.7;84.2
69198;BME280;56311;50.298;8.514;2024-03-23T06:46:02;96910.0;;;4.7;83.7
69198;BME280;56311;50.298;8.514;2024-03-23T06:48:00;96920.0;;;4.7;83.2
69198;BME280;56311;50.298;8.514;2024-03-23T06:50:01;96930.0;;;4.7;83.2
69198;BME280;56311;50.298;8.514;2024-03-23T06:52:00;96940.0;;;4.7;83.1
69198;BME280;56311;50.298;8.514;2024-03-23T06:54:00;96940.0;;;4.7;82.7
69198;BME280;56311;50.298;8.514;2024-03-23T06:56:00;96940.0;;;4.7;82.4
69198;BME280;56311;50.298;8.514;2024-03-23T06:58:00;96940.0;;;4.7;81.3
69198;BME280;56311;50.298;8.514;2024-03-23T07:00:00;96950.0;;;4.7;81.2
69198;BME280;56311;50.298;8.514;2024-03-23T07:02:00;96960.0;;;4.7;80.9
69198;BME280;56311;50.298;8.514;2024-03-23T07:04:01;96970.0;;;4.8;81.1
69198;BME280;56311;50.298;8.514;2024-03-23T07:06:00;96970.0;;;4.8;80.5
69198;BME280;56311;50.298;8.514;2024-03-23T07:08:00;96990.0;;;4.9;79.7
69198;BME280;56311;50.298;8.514;2024-03-23T07:10:00;96980.0;;;4.9;79.6
69198;BME280;56311;50.298;8.514;2024-03-23T07:12:00;96980.0;;;5.0;79.8
69198;BME280;56311;50.298;8.514;2024-03-23T07:14:00;96980.0;;;5.0;79.2
69198;BME280;56311;50.298;8.514;2024-03-23T07:16:01;96980.0;;;5.1;79.2
69198;BME280;56311;50.298;8.514;2024-03-23T07:18:00;96990.0;;;5.1;78.5
69198;BME280;56311;50.298;8.514;2024-03-23T07:20:00;96990.0;;;5.1;78.6
69198;BME280;56311;50.298;8.514;2024-03-23T07:22:00;96990.0;;;5.1;78.7
69198;BME280;56311;50.298;8.514;2024-03-23T07:24:00;96990.0;;;5.1;79.1
69198;BME280;56311;50.298;8.514;2024-03-23T07:26:01;97000.0;;;5.1;79.4
69198;BME280;56311;50.298;8.514;2024-03-23T07:28:00;97010.0;;;5.1;78.2
69198;BME280;56311;50.298;8.514;2024-03-23T07:30:00;97000.0;;;5.1;78.3
69198;BME280;56311;50.298;8.514;2024-03-23T07:32:00;97000.0;;;5.2;78.3
69198;BME280;56311;50.298;8.514;2024-03-23T07:34:00;97010.0;;;5.3;77.4
69198;BME280;56311;50.298;8.514;2024-03-23T07:36:00;97020.0;;;5.5;78.1
69198;BME280;56311;50.298;8.514;2024-03-23T07:38:00;97020.0;;;5.5;77.4
69198;BME280;56311;50.298;8.514;2024-03-23T07:40:00;97020.0;;;5.6;76.7
69198;BME280;56311;50.298;8.514;2024-03-23T07:42:00;97030.0;;;5.6;76.2
69198;BME280;56311;50.298;8.514;2024-03-23T07:44:00;97030.0;;;5.7;77.7
69198;BME280;56311;50.298;8.514;2024-03-23T07:46:00;97030.0;;;5.8;74.3
69198;BME280;56311;50.298;8.514;2024-03-23T07:48:00;97020.0;;;6.0;73.7
69198;BME280;56311;50.298;8.514;2024-03-23T07:50:05;97040.0;;;6.1;73.6
69198;BME280;56311;50.298;8.514;2024-03-23T07:52:00;97040.0;;;6.0;73.0
69198;BME280;56311;50.298;8.514;2024-03-23T07:54:00;97050.0;;;6.0;73.0
69198;BME280;56311;50.298;8.514;2024-03-23T07:56:02;97050.0;;;6.1;73.7
69198;BME280;56311;50.298;8.514;2024-03-23T07:58:00;97050.0;;;6.0;73.9
69198;BME280;56311;50.298;8.514;2024-03-23T08:00:00;97040.0;;;5.9;73.7
69198;BME280;56311;50.298;8.514;2024-03-23T08:02:00;97050.0;;;5.9;74.1
69198;BME280;56311;50.298;8.514;2024-03-23T08:04:00;97060.0;;;5.9;72.9
69198;BME280;56311;50.298;8.514;2024-03-23T08:06:06;97060.0;;;6.1;72.9
69198;BME280;56311;50.298;8.514;2024-03-23T08:08:00;97070.0;;;6.1;73.0
69198;BME280;56311;50.298;8.514;2024-03-23T08:10:00;97070.0;;;6.0;74.1
69198;BME280;56311;50.298;8.514;2024-03-23T08:12:00;97070.0;;;5.9;74.0
69198;BME280;56311;50.298;8.514;2024-03-23T08:14:00;97070.0;;;5.9;73.5
69198;BME280;56311;50.298;8.514;2024-03-23T08:16:02;97070.0;;;6.0;73.4
69198;BME280;56311;50.298;8.514;2024-03-23T08:18:01;97080.0;;;6.0;74.6
69198;BME280;56311;50.298;8.514;2024-03-23T08:20:01;97080.0;;;6.1;72.9
69198;BME280;56311;50.298;8.514;2024-03-23T08:22:00;97090.0;;;6.2;73.2
69198;BME280;56311;50.298;8.514;2024-03-23T08:24:00;97090.0;;;6.0;72.7
69198;BME280;56311;50.298;8.514;2024-03-23T08:26:01;97090.0;;;6.0;72.3
69198;BME280;56311;50.298;8.514;2024-03-23T08:28:00;97090.0;;;6.1;71.0
69198;BME280;56311;50.298;8.514;2024-03-23T08:30:00;97080.0;;;6.2;71.2
69198;BME280;56311;50.298;8.514;2024-03-23T08:32:00;97080.0;;;6.3;71.3
69198;BME280;56311;50.298;8.514;2024-03-23T08:34:00;97080.0;;;6.2;70.3
69198;BME280;56311;50.298;8.514;2024-03-23T08:36:01;97080.0;;;6.3;71.8
69198;BME280;56311;50.298;8.514;2024-03-23T08:38:00;97080.0;;;6.4;70.4
69198;BME280;56311;50.298;8.514;2024-03-23T08:40:00;97070.0;;;6.5;69.6
69198;BME280;56311;50.298;8.514;2024-03-23T08:42:00;97080.0;;;6.5;70.9
69198;BME280;56311;50.298;8.514;2024-03-23T08:44:00;97090.0;;;6.6;70.7
69198;BME280;56311;50.298;8.514;2024-03-23T08:46:03;97080.0;;;6.6;70.8
69198;BME280;56311;50.298;8.514;2024-03-23T08:48:00;97090.0;;;6.7;68.9
69198;BME280;56311;50.298;8.514;2024-03-23T08:50:00;97090.0;;;6.9;68.1
69198;BME280;56311;50.298;8.514;2024-03-23T08:52:00;97100.0;;;7.1;70.0
69198;BME280;56311;50.298;8.514;2024-03-23T08:54:00;97100.0;;;7.0;69.3
69198;BME280;56311;50.298;8.514;2024-03-23T08:56:02;97100.0;;;7.0;68.9
69198;BME280;56311;50.298;8.514;2024-03-23T08:58:00;97100.0;;;7.1;68.1
69198;BME280;56311;50.298;8.514;2024-03-23T09:00:00;97110.0;;;7.2;67.7
69198;BME280;56311;50.298;8.514;2024-03-23T09:02:01;97110.0;;;7.2;67.2
69198;BME280;56311;50.298;8.514;2024-03-23T09:04:00;97110.0;;;7.2;67.1
69198;BME280;56311;50.298;8.514;2024-03-23T09:06:02;97110.0;;;7.3;66.0
69198;BME280;56311;50.298;8.514;2024-03-23T09:08:00;97110.0;;;7.3;66.1
69198;BME280;56311;50.298;8.514;2024-03-23T09:10:00;97110.0;;;7.3;66.5
69198;BME280;56311;50.298;8.514;2024-03-23T09:12:00;97120.0;;;7.3;66.2
69198;BME280;56311;50.298;8.514;2024-03-23T09:14:00;97120.0;;;7.3;64.7
69198;BME280;56311;50.298;8.514;2024-03-23T09:16:00;97130.0;;;7.3;65.2
69198;BME280;56311;50.298;8.514;2024-03-23T09:18:02;97130.0;;;7.3;63.2
69198;BME280;56311;50.298;8.514;2024-03-23T09:20:00;97130.0;;;7.5;62.7
69198;BME280;56311;50.298;8.514;2024-03-23T09:22:00;97130.0;;;7.6;62.8
69198;BME280;56311;50.298;8.514;2024-03-23T09:24:00;97130.0;;;7.8;63.5
69198;BME280;56311;50.298;8.514;2024-03-23T09:26:02;97140.0;;;7.8;62.0
69198;BME280;56311;50.298;8.514;2024-03-23T09:28:01;97140.0;;;8.1;59.7
69198;BME280;56311;50.298;8.514;2024-03-23T09:30:01;97140.0;;;8.2;59.9
69198;BME280;56311;50.298;8.514;2024-03-23T09:32:00;97140.0;;;8.3;58.4
69198;BME280;56311;50.298;8.514;2024-03-23T09:34:00;97130.0;;;8.3;58.4
69198;BME280;56311;50.298;8.514;2024-03-23T09:36:02;97140.0;;;8.2;58.8
69198;BME280;56311;50.298;8.514;2024-03-23T09:38:01;97130.0;;;8.1;57.7
69198;BME280;56311;50.298;8.514;2024-03-23T09:40:00;97130.0;;;8.2;56.9
69198;BME280;56311;50.298;8.514;2024-03-23T09:42:00;97140.0;;;8.4;56.0
69198;BME280;56311;50.298;8.514;2024-03-23T09:44:00;97130.0;;;8.7;57.0
69198;BME280;56311;50.298;8.514;2024-03-23T09:46:01;97120.0;;;8.9;54.9
69198;BME280;56311;50.298;8.514;2024-03-23T09:48:00;97140.0;;;9.4;51.9
69198;BME280;56311;50.298;8.514;2024-03-23T09:50:00;97130.0;;;9.6;52.1
69198;BME280;56311;50.298;8.514;2024-03-23T09:52:00;97120.0;;;9.4;53.1
69198;BME280;56311;50.298;8.514;2024-03-23T09:54:00;97120.0;;;9.3;53.9
69198;BME280;56311;50.298;8.514;2024-03-23T09:56:00;97110.0;;;9.5;51.5
69198;BME280;56311;50.298;8.514;2024-03-23T09:58:00;97120.0;;;9.5;52.4
69198;BME280;56311;50.298;8.514;2024-03-23T10:00:00;97120.0;;;9.2;51.4
69198;BME280;56311;50.298;8.514;2024-03-23T10:02:01;97120.0;;;9.1;50.6
69198;BME280;56311;50.298;8.514;2024-03-23T10:04:00;97110.0;;;8.7;51.6
69198;BME280;56311;50.298;8.514;2024-03-23T10:06:01;97110.0;;;8.6;51.2
69198;BME280;56311;50.298;8.514;2024-03-23T10:08:00;97120.0;;;9.0;49.7
69198;BME280;56311;50.298;8.514;2024-03-23T10:10:10;97110.0;;;9.0;51.0
69198;BME280;56311;50.298;8.514;2024-03-23T10:12:08;97120.0;;;8.7;51.0
69198;BME280;56311;50.298;8.514;2024-03-23T10:14:00;97140.0;;;8.7;51.4
69198;BME280;56311;50.298;8.514;2024-03-23T10:16:00;97160.0;;;8.5;54.1
69198;BME280;56311;50.298;8.514;2024-03-23T10:20:00;97180.0;;;7.7;63.0
69198;BME280;56311;50.298;8.514;2024-03-23T10:22:00;97180.0;;;6.7;65.3
69198;BME280;56311;50.298;8.514;2024-03-23T10:24:08;97180.0;;;6.3;68.0
69198;BME280;56311;50.298;8.514;2024-03-23T10:28:00;97160.0;;;5.7;66.9
69198;BME280;56311;50.298;8.514;2024-03-23T10:30:08;97150.0;;;5.8;65.7
69198;BME280;56311;50.298;8.514;2024-03-23T10:32:08;97150.0;;;5.9;65.2
69198;BME280;56311;50.298;8.514;2024-03-23T10:34:00;97150.0;;;6.0;64.2
69198;BME280;56311;50.298;8.514;2024-03-23T10:36:00;97140.0;;;6.2;64.0
69198;BME280;56311;50.298;8.514;2024-03-23T10:38:00;97140.0;;;6.3;63.6
69198;BME280;56311;50.298;8.514;2024-03-23T10:40:00;97140.0;;;6.3;62.8
69198;BME280;56311;50.298;8.514;2024-03-23T10:42:01;97140.0;;;6.4;60.5
69198;BME280;56311;50.298;8.514;2024-03-23T10:44:01;97140.0;;;6.5;60.1
69198;BME280;56311;50.298;8.514;2024-03-23T10:46:00;97140.0;;;6.6;59.2
69198;BME280;56311;50.298;8.514;2024-03-23T10:48:01;97140.0;;;6.6;57.4
69198;BME280;56311;50.298;8.514;2024-03-23T10:50:00;97140.0;;;6.7;57.5
69198;BME280;56311;50.298;8.514;2024-03-23T10:52:01;97130.0;;;6.8;57.4
69198;BME280;56311;50.298;8.514;2024-03-23T10:54:04;97120.0;;;7.0;57.3
69198;BME280;56311;50.298;8.514;2024-03-23T10:56:00;97120.0;;;7.1;57.3
69198;BME280;56311;50.298;8.514;2024-03-23T10:58:01;97120.0;;;7.2;55.6
69198;BME280;56311;50.298;8.514;2024-03-23T11:00:02;97110.0;;;7.4;55.1
69198;BME280;56311;50.298;8.514;2024-03-23T11:02:00;97110.0;;;7.7;54.0
69198;BME280;56311;50.298;8.514;2024-03-23T11:04:00;97100.0;;;8.1;53.5
69198;BME280;56311;50.298;8.514;2024-03-23T11:06:00;97100.0;;;8.4;53.7
69198;BME280;56311;50.298;8.514;2024-03-23T11:08:00;97100.0;;;8.5;52.8
69198;BME280;56311;50.298;8.514;2024-03-23T11:10:00;97100.0;;;8.5;54.9
69198;BME280;56311;50.298;8.514;2024-03-23T11:20:01;97080.0;;;9.4;49.6
69198;BME280;56311;50.298;8.514;2024-03-23T11:22:01;97090.0;;;9.6;49.7
69198;BME280;56311;50.298;8.514;2024-03-23T11:26:00;97090.0;;;10.1;48.3
69198;BME280;56311;50.298;8.514;2024-03-23T11:28:11;97090.0;;;10.1;48.6
69198;BME280;56311;50.298;8.514;2024-03-23T11:30:11;97080.0;;;9.8;49.7
69198;BME280;56311;50.298;8.514;2024-03-23T11:32:03;97070.0;;;9.4;50.7
69198;BME280;56311;50.298;8.514;2024-03-23T11:34:03;97080.0;;;9.0;51.5
69198;BME280;56311;50.298;8.514;2024-03-23T11:36:00;97080.0;;;8.8;51.5
69198;BME280;56311;50.298;8.514;2024-03-23T11:38:05;97070.0;;;8.8;51.0
69198;BME280;56311;50.298;8.514;2024-03-23T11:40:00;97070.0;;;8.9;51.1
69198;BME280;56311;50.298;8.514;2024-03-23T11:42:00;97070.0;;;9.1;49.0
69198;BME280;56311;50.298;8.514;2024-03-23T11:46:00;97070.0;;;9.5;48.5
69198;BME280;56311;50.298;8.514;2024-03-23T11:48:04;97050.0;;;9.8;48.7
69198;BME280;56311;50.298;8.514;2024-03-23T11:50:00;97050.0;;;9.8;48.9
69198;BME280;56311;50.298;8.514;2024-03-23T11:52:00;97060.0;;;10.1;47.1
69198;BME280;56311;50.298;8.514;2024-03-23T11:54:07;97050.0;;;10.4;47.4
69198;BME280;56311;50.298;8.514;2024-03-23T11:56:01;97040.0;;;10.8;45.5
69198;BME280;56311;50.298;8.514;2024-03-23T11:58:01;97050.0;;;11.0;46.9
69198;BME280;56311;50.298;8.514;2024-03-23T12:00:00;97030.0;;;11.0;46.3
69198;BME280;56311;50.298;8.514;2024-03-23T12:02:05;97040.0;;;10.7;46.5
69198;BME280;56311;50.298;8.514;2024-03-23T12:04:00;97050.0;;;10.7;46.3
69198;BME280;56311;50.298;8.514;2024-03-23T12:06:01;97050.0;;;10.6;46.3
69198;BME280;56311;50.298;8.514;2024-03-23T12:10:04;97050.0;;;10.5;45.0
69198;BME280;56311;50.298;8.514;2024-03-23T12:12:06;97040.0;;;10.6;44.9
69198;BME280;56311;50.298;8.514;2024-03-23T12:14:00;97040.0;;;10.9;44.3
69198;BME280;56311;50.298;8.514;2024-03-23T12:16:09;97050.0;;;10.9;44.8
69198;BME280;56311;50.298;8.514;2024-03-23T12:18:07;97040.0;;;10.9;44.6
69198;BME280;56311;50.298;8.514;2024-03-23T12:20:01;97050.0;;;11.2;43.7
69198;BME280;56311;50.298;8.514;2024-03-23T12:22:00;97030.0;;;11.0;44.4